createdAt,value
2019-05-05T00:04:20.392Z,80.23
2019-05-05T00:09:26.266Z,80.23
2019-05-05T00:14:44.210Z,80.18
2019-05-05T00:19:49.820Z,79.68
2019-05-05T00:24:55.601Z,80.45
2019-05-05T00:30:01.446Z,81.44
2019-05-05T00:35:08.197Z,81.85
2019-05-05T00:40:14.251Z,82.08
2019-05-05T00:50:52.015Z,82.37
2019-05-05T00:55:57.765Z,82.82
2019-05-05T01:01:14.439Z,83.28
2019-05-05T01:06:25.444Z,83.37
2019-05-05T01:11:31.687Z,83.43
2019-05-05T01:16:38.623Z,84.07
2019-05-05T01:21:45.408Z,84.41
2019-05-05T01:26:52.162Z,84.50
2019-05-05T01:32:00.494Z,84.59
2019-05-05T01:37:15.167Z,84.91
2019-05-05T01:42:21.501Z,84.67
2019-05-05T01:47:27.137Z,84.78
2019-05-05T01:52:34.450Z,85.11
2019-05-05T01:57:41.108Z,85.30
2019-05-05T02:02:48.093Z,85.33
2019-05-05T02:07:55.278Z,85.82
2019-05-05T02:13:02.033Z,86.01
2019-05-05T02:18:08.105Z,85.39
2019-05-05T02:23:16.960Z,84.73
2019-05-05T02:28:24.780Z,84.65
2019-05-05T02:33:31.103Z,85.21
2019-05-05T02:38:37.448Z,85.95
2019-05-05T02:43:44.952Z,85.67
2019-05-05T02:48:55.089Z,86.79
2019-05-05T02:54:04.585Z,86.92
2019-05-05T02:59:16.073Z,86.26
2019-05-05T03:04:24.614Z,86.62
2019-05-05T03:09:34.703Z,87.52
2019-05-05T03:14:44.506Z,87.23
2019-05-05T03:19:50.902Z,86.94
2019-05-05T03:24:58.439Z,86.56
2019-05-05T03:30:05.402Z,85.99
2019-05-05T03:35:13.879Z,85.21
2019-05-05T03:40:24.647Z,85.17
2019-05-05T03:45:39.261Z,86.30
2019-05-05T03:50:46.326Z,86.57
2019-05-05T03:55:54.515Z,86.58
2019-05-05T04:01:25.229Z,86.38
2019-05-05T04:06:40.545Z,87.11
2019-05-05T04:11:46.924Z,87.51
2019-05-05T04:17:03.527Z,87.24
2019-05-05T04:22:09.897Z,87.04
2019-05-05T04:27:15.886Z,87.97
2019-05-05T04:32:24.288Z,88.50
2019-05-05T04:37:31.114Z,88.78
2019-05-05T04:42:37.125Z,89.29
2019-05-05T04:47:47.634Z,90.50
2019-05-05T04:52:54.924Z,90.72
2019-05-05T04:58:01.784Z,90.11
2019-05-05T05:03:27.187Z,92.14
2019-05-05T05:08:33.889Z,90.85
2019-05-05T05:13:40.599Z,90.10
2019-05-05T05:18:46.659Z,89.77
2019-05-05T05:23:53.720Z,90.38
2019-05-05T05:29:00.137Z,89.94
2019-05-05T05:34:06.586Z,89.21
2019-05-05T05:39:19.733Z,88.88
2019-05-05T05:44:38.204Z,89.09
2019-05-05T05:49:48.427Z,89.13
2019-05-05T05:54:54.212Z,90.04
2019-05-05T06:00:01.099Z,89.82
2019-05-05T06:05:07.634Z,90.04
2019-05-05T06:10:24.293Z,89.87
2019-05-05T06:15:24.596Z,89.82
2019-05-05T06:20:31.671Z,89.99
2019-05-05T06:25:38.295Z,89.92
2019-05-05T06:30:44.624Z,90.41
2019-05-05T06:35:53.613Z,90.93
2019-05-05T06:41:07.987Z,91.25
2019-05-05T06:46:15.793Z,91.30
2019-05-05T06:51:24.389Z,90.49
2019-05-05T06:56:31.049Z,89.38
2019-05-05T07:01:37.355Z,87.76
2019-05-05T07:06:53.472Z,86.46
2019-05-05T07:11:51.184Z,80.17
2019-05-05T07:16:56.992Z,73.08
2019-05-05T07:22:04.050Z,67.24
2019-05-05T07:27:11.195Z,65.96
2019-05-05T07:32:17.805Z,64.56
2019-05-05T07:37:24.031Z,63.95
2019-05-05T07:42:44.146Z,63.67
2019-05-05T07:47:51.267Z,63.14
2019-05-05T07:53:11.421Z,61.50
2019-05-05T07:58:06.617Z,61.36
2019-05-05T08:03:14.350Z,60.97
2019-05-05T08:08:20.795Z,62.21
2019-05-05T08:13:27.576Z,64.38
2019-05-05T08:18:46.707Z,64.52
2019-05-05T08:24:04.541Z,64.10
2019-05-05T08:29:28.549Z,61.94
2019-05-05T08:34:36.797Z,61.03
2019-05-05T08:39:42.287Z,59.96
2019-05-05T08:44:48.761Z,57.77
2019-05-05T08:49:55.402Z,60.43
2019-05-05T08:55:04.532Z,58.76
2019-05-05T09:00:11.177Z,56.40
2019-05-05T09:05:17.282Z,55.44
2019-05-05T09:10:24.444Z,50.36
2019-05-05T09:15:30.759Z,47.41
2019-05-05T09:20:37.073Z,42.19
2019-05-05T09:25:59.244Z,40.45
2019-05-05T09:31:06.880Z,38.89
2019-05-05T09:36:14.492Z,35.94
2019-05-05T09:41:20.686Z,36.19
2019-05-05T09:46:26.869Z,37.33
2019-05-05T09:51:34.730Z,37.22
2019-05-05T09:56:44.324Z,39.63
2019-05-05T10:01:51.099Z,39.60
2019-05-05T10:06:57.786Z,38.73
2019-05-05T10:12:04.933Z,39.58
2019-05-05T10:17:14.116Z,36.05
2019-05-05T10:22:20.202Z,34.25
2019-05-05T10:27:26.649Z,32.56
2019-05-05T10:32:32.636Z,36.89
2019-05-05T10:37:39.496Z,37.17
2019-05-05T10:42:53.988Z,37.67
2019-05-05T10:48:04.083Z,40.52
2019-05-05T10:53:13.859Z,38.70
2019-05-05T10:58:20.889Z,38.46
2019-05-05T11:03:26.856Z,39.73
2019-05-05T11:08:34.997Z,37.28
2019-05-05T11:13:49.648Z,39.63
2019-05-05T11:18:56.701Z,38.18
2019-05-05T11:24:06.385Z,39.23
2019-05-05T11:29:24.216Z,38.38
2019-05-05T11:34:30.902Z,38.39
2019-05-05T11:39:37.799Z,38.51
2019-05-05T11:44:47.468Z,36.23
2019-05-05T11:49:56.783Z,36.23
2019-05-05T11:55:12.814Z,34.85
2019-05-05T12:00:27.683Z,36.87
2019-05-05T12:05:33.771Z,38.22
2019-05-05T12:10:49.112Z,36.33
2019-05-05T12:16:09.557Z,36.52
2019-05-05T12:21:24.266Z,34.85
2019-05-05T12:26:44.013Z,35.40
2019-05-05T12:31:52.967Z,38.80
2019-05-05T12:37:09.380Z,35.91
2019-05-05T12:42:19.196Z,37.11
2019-05-05T12:47:38.693Z,38.75
2019-05-05T12:52:45.099Z,36.00
2019-05-05T12:57:51.579Z,37.89
2019-05-05T13:02:58.115Z,35.40
2019-05-05T13:08:06.533Z,34.06
2019-05-05T13:13:14.068Z,35.94
2019-05-05T13:18:20.354Z,33.36
2019-05-05T13:23:39.624Z,36.84
2019-05-05T13:28:46.005Z,37.53
2019-05-05T13:33:54.805Z,38.59
2019-05-05T13:39:03.468Z,35.03
2019-05-05T13:44:16.623Z,35.93
2019-05-05T13:49:38.890Z,37.34
2019-05-05T13:54:45.546Z,36.74
2019-05-05T13:59:54.568Z,37.79
2019-05-05T14:05:04.486Z,38.67
2019-05-05T14:10:10.807Z,38.36
2019-05-05T14:15:19.142Z,41.52
2019-05-05T14:20:26.627Z,41.74
2019-05-05T14:25:32.954Z,39.37
2019-05-05T14:30:57.772Z,38.54
2019-05-05T14:36:13.813Z,38.03
2019-05-05T14:41:20.107Z,40.26
2019-05-05T14:46:26.415Z,42.57
2019-05-05T14:51:34.157Z,41.68
2019-05-05T14:56:41.235Z,41.07
2019-05-05T15:01:48.633Z,42.69
2019-05-05T15:07:05.092Z,42.44
2019-05-05T15:12:20.411Z,42.97
2019-05-05T15:17:27.457Z,46.07
2019-05-05T15:22:37.142Z,44.88
2019-05-05T15:27:45.096Z,45.64
2019-05-05T15:32:54.022Z,45.01
2019-05-05T15:37:59.824Z,47.66
2019-05-05T15:43:06.000Z,47.44
2019-05-05T15:48:13.975Z,49.58
2019-05-05T15:53:23.416Z,47.46
2019-05-05T15:58:31.706Z,47.26
2019-05-05T16:03:38.130Z,46.05
2019-05-05T16:08:45.302Z,47.05
2019-05-05T16:13:51.459Z,48.69
2019-05-05T16:19:08.458Z,48.76
2019-05-05T16:24:19.206Z,47.12
2019-05-05T16:29:28.462Z,45.33
2019-05-05T16:40:38.162Z,46.36
2019-05-05T16:45:44.520Z,47.44
2019-05-05T16:50:50.637Z,44.48
2019-05-05T16:55:57.192Z,48.34
2019-05-05T17:01:03.800Z,49.21
2019-05-05T17:06:09.913Z,51.14
2019-05-05T17:11:16.043Z,51.69
2019-05-05T17:16:35.773Z,51.32
2019-05-05T17:21:50.240Z,51.46
2019-05-05T17:26:56.891Z,53.32
2019-05-05T17:32:03.108Z,55.44
2019-05-05T17:37:09.680Z,56.17
2019-05-05T17:42:26.818Z,55.50
2019-05-05T17:47:41.220Z,55.00
2019-05-05T17:52:53.750Z,54.38
2019-05-05T17:58:02.537Z,53.98
2019-05-05T18:03:09.181Z,55.38
2019-05-05T18:08:24.062Z,56.04
2019-05-05T18:13:44.198Z,53.84
2019-05-05T18:18:54.862Z,55.75
2019-05-05T18:24:01.381Z,56.95
2019-05-05T18:29:18.280Z,56.87
2019-05-05T18:34:28.425Z,56.35
2019-05-05T18:39:36.332Z,56.46
2019-05-05T18:44:46.323Z,58.32
2019-05-05T18:49:54.010Z,58.08
2019-05-05T18:55:00.854Z,57.90
2019-05-05T19:00:10.726Z,57.87
2019-05-05T19:05:31.838Z,58.42
2019-05-05T19:10:37.859Z,58.44
2019-05-05T19:15:44.643Z,57.79
2019-05-05T19:20:58.795Z,57.57
2019-05-05T19:26:18.173Z,59.07
2019-05-05T19:31:36.730Z,59.63
2019-05-05T19:36:44.955Z,60.36
2019-05-05T19:41:54.558Z,61.11
2019-05-05T19:47:18.111Z,61.98
2019-05-05T19:52:35.643Z,63.83
2019-05-05T19:57:47.219Z,65.11
2019-05-05T20:03:02.192Z,66.86
2019-05-05T20:08:03.978Z,67.50
2019-05-05T20:13:09.831Z,68.38
2019-05-05T20:18:19.212Z,69.48
2019-05-05T20:23:25.851Z,71.49
2019-05-05T20:28:33.862Z,72.34
2019-05-05T20:33:49.660Z,72.35
2019-05-05T20:38:56.700Z,73.04
2019-05-05T20:44:05.999Z,72.36
2019-05-05T20:49:24.522Z,71.62
2019-05-05T20:54:31.113Z,70.88
2019-05-05T20:59:40.932Z,71.35
2019-05-05T21:04:49.293Z,72.12
2019-05-05T21:09:55.571Z,72.19
2019-05-05T21:15:01.781Z,72.57
2019-05-05T21:20:07.774Z,73.51
2019-05-05T21:25:23.883Z,74.34
2019-05-05T21:30:30.131Z,74.44
2019-05-05T21:35:37.180Z,74.83
2019-05-05T21:40:44.063Z,74.50
2019-05-05T21:45:50.701Z,73.59
2019-05-05T21:51:10.231Z,74.00
2019-05-05T21:56:25.932Z,73.95
2019-05-05T22:01:39.490Z,73.45
2019-05-05T22:06:42.252Z,73.12
2019-05-05T22:11:48.940Z,73.17
2019-05-05T22:16:55.336Z,73.76
2019-05-05T22:22:04.896Z,75.39
2019-05-05T22:27:11.171Z,75.80
2019-05-05T22:32:22.320Z,76.82
2019-05-05T22:37:28.871Z,76.41
2019-05-05T22:42:49.342Z,76.84
2019-05-05T22:47:56.699Z,78.04
2019-05-05T22:53:02.931Z,79.33
2019-05-05T22:58:18.101Z,79.03
2019-05-05T23:03:32.107Z,78.67
2019-05-05T23:08:54.489Z,77.76
2019-05-05T23:14:10.035Z,76.46
2019-05-05T23:19:28.509Z,75.67
2019-05-05T23:24:43.474Z,75.24
2019-05-05T23:29:51.516Z,74.58
2019-05-05T23:34:57.620Z,73.78
2019-05-05T23:40:04.938Z,73.02
2019-05-05T23:45:25.047Z,72.96
2019-05-05T23:50:45.486Z,73.47
2019-05-05T23:55:54.429Z,74.35
